sensor_id;sensor_type;location;lat;lon;timestamp;P1;durP1;ratioP1;P2;durP2;ratioP2
8714;SDS011;4394;51.208;8.904;2023-08-30T00:00:45;5.17;;;4.50;;
8714;SDS011;4394;51.208;8.904;2023-08-30T00:03:33;5.23;;;4.47;;
8714;SDS011;4394;51.208;8.904;2023-08-30T00:06:21;7.27;;;4.30;;
8714;SDS011;4394;51.208;8.904;2023-08-30T00:09:09;5.47;;;4.53;;
8714;SDS011;4394;51.208;8.904;2023-08-30T00:11:59;4.50;;;4.10;;
8714;SDS011;4394;51.208;8.904;2023-08-30T00:14:47;4.83;;;4.33;;
8714;SDS011;4394;51.208;8.904;2023-08-30T00:17:36;4.60;;;4.17;;
8714;SDS011;4394;51.208;8.904;2023-08-30T00:20:25;4.87;;;4.07;;
8714;SDS011;4394;51.208;8.904;2023-08-30T00:23:13;6.40;;;3.97;;
8714;SDS011;4394;51.208;8.904;2023-08-30T00:26:03;5.57;;;4.30;;
8714;SDS011;4394;51.208;8.904;2023-08-30T00:28:51;5.27;;;4.40;;
8714;SDS011;4394;51.208;8.904;2023-08-30T00:31:39;4.80;;;4.40;;
8714;SDS011;4394;51.208;8.904;2023-08-30T00:34:28;4.70;;;4.10;;
8714;SDS011;4394;51.208;8.904;2023-08-30T00:37:16;5.63;;;4.63;;
8714;SDS011;4394;51.208;8.904;2023-08-30T00:40:04;5.07;;;3.97;;
8714;SDS011;4394;51.208;8.904;2023-08-30T00:42:53;6.13;;;4.10;;
8714;SDS011;4394;51.208;8.904;2023-08-30T00:45:41;5.22;;;4.72;;
8714;SDS011;4394;51.208;8.904;2023-08-30T00:48:29;6.27;;;4.60;;
8714;SDS011;4394;51.208;8.904;2023-08-30T00:51:19;5.23;;;4.57;;
8714;SDS011;4394;51.208;8.904;2023-08-30T00:57:21;4.80;;;4.27;;
8714;SDS011;4394;51.208;8.904;2023-08-30T01:00:09;5.37;;;4.87;;
8714;SDS011;4394;51.208;8.904;2023-08-30T01:02:58;5.80;;;5.00;;
8714;SDS011;4394;51.208;8.904;2023-08-30T01:05:47;5.13;;;4.63;;
8714;SDS011;4394;51.208;8.904;2023-08-30T01:08:36;6.43;;;4.93;;
8714;SDS011;4394;51.208;8.904;2023-08-30T01:11:26;4.90;;;4.40;;
8714;SDS011;4394;51.208;8.904;2023-08-30T01:14:22;4.87;;;4.37;;
8714;SDS011;4394;51.208;8.904;2023-08-30T01:17:13;6.53;;;4.53;;
8714;SDS011;4394;51.208;8.904;2023-08-30T01:20:04;5.57;;;4.93;;
8714;SDS011;4394;51.208;8.904;2023-08-30T01:23:00;5.87;;;5.27;;
8714;SDS011;4394;51.208;8.904;2023-08-30T01:25:57;6.67;;;5.30;;
8714;SDS011;4394;51.208;8.904;2023-08-30T01:28:53;5.70;;;5.10;;
8714;SDS011;4394;51.208;8.904;2023-08-30T01:31:43;5.77;;;5.10;;
8714;SDS011;4394;51.208;8.904;2023-08-30T01:34:33;6.43;;;5.47;;
8714;SDS011;4394;51.208;8.904;2023-08-30T01:37:22;6.10;;;5.03;;
8714;SDS011;4394;51.208;8.904;2023-08-30T01:40:12;6.73;;;5.73;;
8714;SDS011;4394;51.208;8.904;2023-08-30T01:43:02;5.83;;;5.00;;
8714;SDS011;4394;51.208;8.904;2023-08-30T01:45:55;6.50;;;5.80;;
8714;SDS011;4394;51.208;8.904;2023-08-30T01:48:44;6.90;;;5.40;;
8714;SDS011;4394;51.208;8.904;2023-08-30T01:51:34;8.67;;;5.80;;
8714;SDS011;4394;51.208;8.904;2023-08-30T01:54:22;10.17;;;6.00;;
8714;SDS011;4394;51.208;8.904;2023-08-30T01:57:11;9.00;;;5.97;;
8714;SDS011;4394;51.208;8.904;2023-08-30T01:59:59;6.03;;;5.43;;
8714;SDS011;4394;51.208;8.904;2023-08-30T02:02:48;7.27;;;5.80;;
8714;SDS011;4394;51.208;8.904;2023-08-30T02:05:37;6.57;;;5.53;;
8714;SDS011;4394;51.208;8.904;2023-08-30T02:08:32;6.60;;;5.53;;
8714;SDS011;4394;51.208;8.904;2023-08-30T02:11:26;5.97;;;5.37;;
8714;SDS011;4394;51.208;8.904;2023-08-30T02:14:15;6.77;;;5.70;;
8714;SDS011;4394;51.208;8.904;2023-08-30T02:17:05;6.87;;;5.20;;
8714;SDS011;4394;51.208;8.904;2023-08-30T02:19:55;6.20;;;5.13;;
8714;SDS011;4394;51.208;8.904;2023-08-30T02:22:43;5.97;;;5.37;;
8714;SDS011;4394;51.208;8.904;2023-08-30T02:25:31;7.43;;;5.23;;
8714;SDS011;4394;51.208;8.904;2023-08-30T02:28:19;6.70;;;5.47;;
8714;SDS011;4394;51.208;8.904;2023-08-30T02:31:07;6.23;;;5.63;;
8714;SDS011;4394;51.208;8.904;2023-08-30T02:33:55;6.97;;;5.80;;
8714;SDS011;4394;51.208;8.904;2023-08-30T02:36:44;6.47;;;5.77;;
8714;SDS011;4394;51.208;8.904;2023-08-30T02:39:32;7.43;;;5.40;;
8714;SDS011;4394;51.208;8.904;2023-08-30T02:42:20;6.30;;;5.50;;
8714;SDS011;4394;51.208;8.904;2023-08-30T02:45:09;8.10;;;5.70;;
8714;SDS011;4394;51.208;8.904;2023-08-30T02:47:57;7.53;;;5.43;;
8714;SDS011;4394;51.208;8.904;2023-08-30T02:50:45;4.67;;;4.13;;
8714;SDS011;4394;51.208;8.904;2023-08-30T02:53:34;5.37;;;4.87;;
8714;SDS011;4394;51.208;8.904;2023-08-30T02:56:22;6.73;;;4.90;;
8714;SDS011;4394;51.208;8.904;2023-08-30T02:59:11;5.07;;;4.57;;
8714;SDS011;4394;51.208;8.904;2023-08-30T03:01:59;5.97;;;5.00;;
8714;SDS011;4394;51.208;8.904;2023-08-30T03:04:47;7.73;;;6.17;;
8714;SDS011;4394;51.208;8.904;2023-08-30T03:07:35;6.40;;;5.80;;
8714;SDS011;4394;51.208;8.904;2023-08-30T03:10:24;7.23;;;5.97;;
8714;SDS011;4394;51.208;8.904;2023-08-30T03:13:12;6.93;;;5.97;;
8714;SDS011;4394;51.208;8.904;2023-08-30T03:16:00;6.97;;;5.93;;
8714;SDS011;4394;51.208;8.904;2023-08-30T03:18:49;7.13;;;5.97;;
8714;SDS011;4394;51.208;8.904;2023-08-30T03:21:37;8.07;;;6.30;;
8714;SDS011;4394;51.208;8.904;2023-08-30T03:24:25;7.47;;;6.17;;
8714;SDS011;4394;51.208;8.904;2023-08-30T03:27:15;7.17;;;5.83;;
8714;SDS011;4394;51.208;8.904;2023-08-30T03:30:13;7.63;;;6.83;;
8714;SDS011;4394;51.208;8.904;2023-08-30T03:33:01;7.70;;;6.63;;
8714;SDS011;4394;51.208;8.904;2023-08-30T03:35:49;7.10;;;6.27;;
8714;SDS011;4394;51.208;8.904;2023-08-30T03:38:37;7.13;;;6.43;;
8714;SDS011;4394;51.208;8.904;2023-08-30T03:41:25;8.60;;;6.10;;
8714;SDS011;4394;51.208;8.904;2023-08-30T03:44:14;8.57;;;6.17;;
8714;SDS011;4394;51.208;8.904;2023-08-30T03:47:03;7.30;;;6.60;;
8714;SDS011;4394;51.208;8.904;2023-08-30T03:49:51;6.77;;;6.07;;
8714;SDS011;4394;51.208;8.904;2023-08-30T03:52:39;7.60;;;6.77;;
8714;SDS011;4394;51.208;8.904;2023-08-30T03:55:27;8.80;;;6.47;;
8714;SDS011;4394;51.208;8.904;2023-08-30T03:58:15;8.03;;;6.70;;
8714;SDS011;4394;51.208;8.904;2023-08-30T04:01:05;10.30;;;7.57;;
8714;SDS011;4394;51.208;8.904;2023-08-30T04:03:54;8.23;;;7.07;;
8714;SDS011;4394;51.208;8.904;2023-08-30T04:06:42;7.97;;;6.50;;
8714;SDS011;4394;51.208;8.904;2023-08-30T04:09:31;9.60;;;7.00;;
8714;SDS011;4394;51.208;8.904;2023-08-30T04:12:19;9.43;;;6.97;;
8714;SDS011;4394;51.208;8.904;2023-08-30T04:15:07;8.20;;;7.00;;
8714;SDS011;4394;51.208;8.904;2023-08-30T04:17:58;8.63;;;7.00;;
8714;SDS011;4394;51.208;8.904;2023-08-30T04:20:46;7.80;;;6.80;;
8714;SDS011;4394;51.208;8.904;2023-08-30T04:23:35;9.27;;;6.80;;
8714;SDS011;4394;51.208;8.904;2023-08-30T04:26:23;7.60;;;6.80;;
8714;SDS011;4394;51.208;8.904;2023-08-30T04:29:20;8.20;;;7.37;;
8714;SDS011;4394;51.208;8.904;2023-08-30T04:32:08;8.83;;;6.30;;
8714;SDS011;4394;51.208;8.904;2023-08-30T04:34:57;7.43;;;5.57;;
8714;SDS011;4394;51.208;8.904;2023-08-30T04:37:47;6.33;;;5.03;;
8714;SDS011;4394;51.208;8.904;2023-08-30T04:40:34;6.22;;;5.40;;
8714;SDS011;4394;51.208;8.904;2023-08-30T04:43:23;6.17;;;5.20;;
8714;SDS011;4394;51.208;8.904;2023-08-30T04:46:11;7.00;;;5.50;;
8714;SDS011;4394;51.208;8.904;2023-08-30T04:48:59;6.37;;;5.63;;
8714;SDS011;4394;51.208;8.904;2023-08-30T04:51:49;7.17;;;5.77;;
8714;SDS011;4394;51.208;8.904;2023-08-30T04:54:37;7.10;;;5.67;;
8714;SDS011;4394;51.208;8.904;2023-08-30T04:57:25;8.27;;;6.17;;
8714;SDS011;4394;51.208;8.904;2023-08-30T05:00:13;6.80;;;6.10;;
8714;SDS011;4394;51.208;8.904;2023-08-30T05:03:02;6.80;;;6.10;;
8714;SDS011;4394;51.208;8.904;2023-08-30T05:05:50;8.70;;;6.40;;
8714;SDS011;4394;51.208;8.904;2023-08-30T05:08:40;7.50;;;6.43;;
8714;SDS011;4394;51.208;8.904;2023-08-30T05:11:28;8.07;;;6.33;;
8714;SDS011;4394;51.208;8.904;2023-08-30T05:14:16;9.10;;;6.20;;
8714;SDS011;4394;51.208;8.904;2023-08-30T05:17:04;8.27;;;6.70;;
8714;SDS011;4394;51.208;8.904;2023-08-30T05:19:52;8.30;;;6.60;;
8714;SDS011;4394;51.208;8.904;2023-08-30T05:22:40;9.13;;;6.93;;
8714;SDS011;4394;51.208;8.904;2023-08-30T05:25:30;8.43;;;6.50;;
8714;SDS011;4394;51.208;8.904;2023-08-30T05:28:18;8.13;;;6.97;;
8714;SDS011;4394;51.208;8.904;2023-08-30T05:31:06;8.50;;;6.47;;
8714;SDS011;4394;51.208;8.904;2023-08-30T05:33:55;8.87;;;6.40;;
8714;SDS011;4394;51.208;8.904;2023-08-30T05:36:43;7.50;;;6.70;;
8714;SDS011;4394;51.208;8.904;2023-08-30T05:39:31;8.10;;;6.90;;
8714;SDS011;4394;51.208;8.904;2023-08-30T05:42:20;7.77;;;6.17;;
8714;SDS011;4394;51.208;8.904;2023-08-30T05:45:09;7.43;;;6.63;;
8714;SDS011;4394;51.208;8.904;2023-08-30T05:47:57;7.43;;;6.17;;
8714;SDS011;4394;51.208;8.904;2023-08-30T05:50:45;8.00;;;6.97;;
8714;SDS011;4394;51.208;8.904;2023-08-30T05:53:33;9.67;;;6.90;;
8714;SDS011;4394;51.208;8.904;2023-08-30T05:56:22;9.03;;;6.93;;
8714;SDS011;4394;51.208;8.904;2023-08-30T05:59:11;7.10;;;6.00;;
8714;SDS011;4394;51.208;8.904;2023-08-30T06:02:00;6.90;;;5.90;;
8714;SDS011;4394;51.208;8.904;2023-08-30T06:04:48;7.80;;;6.67;;
8714;SDS011;4394;51.208;8.904;2023-08-30T06:07:36;8.40;;;7.55;;
8714;SDS011;4394;51.208;8.904;2023-08-30T06:10:25;8.87;;;7.07;;
8714;SDS011;4394;51.208;8.904;2023-08-30T06:13:13;7.73;;;6.70;;
8714;SDS011;4394;51.208;8.904;2023-08-30T06:16:02;7.73;;;6.80;;
8714;SDS011;4394;51.208;8.904;2023-08-30T06:18:50;8.47;;;6.70;;
8714;SDS011;4394;51.208;8.904;2023-08-30T06:21:39;7.40;;;6.23;;
8714;SDS011;4394;51.208;8.904;2023-08-30T06:24:27;7.67;;;6.47;;
8714;SDS011;4394;51.208;8.904;2023-08-30T06:27:15;7.47;;;5.80;;
8714;SDS011;4394;51.208;8.904;2023-08-30T06:30:03;7.20;;;6.43;;
8714;SDS011;4394;51.208;8.904;2023-08-30T06:32:54;8.00;;;6.47;;
8714;SDS011;4394;51.208;8.904;2023-08-30T06:35:42;7.33;;;5.63;;
8714;SDS011;4394;51.208;8.904;2023-08-30T06:38:30;8.00;;;5.97;;
8714;SDS011;4394;51.208;8.904;2023-08-30T06:41:18;7.40;;;6.40;;
8714;SDS011;4394;51.208;8.904;2023-08-30T06:44:06;6.77;;;6.07;;
8714;SDS011;4394;51.208;8.904;2023-08-30T06:46:54;6.57;;;5.90;;
8714;SDS011;4394;51.208;8.904;2023-08-30T06:49:47;8.10;;;6.00;;
8714;SDS011;4394;51.208;8.904;2023-08-30T06:52:35;7.63;;;6.03;;
8714;SDS011;4394;51.208;8.904;2023-08-30T06:55:23;6.53;;;5.90;;
8714;SDS011;4394;51.208;8.904;2023-08-30T06:58:11;7.43;;;6.00;;
8714;SDS011;4394;51.208;8.904;2023-08-30T07:00:59;7.27;;;5.87;;
8714;SDS011;4394;51.208;8.904;2023-08-30T07:03:49;6.90;;;6.17;;
8714;SDS011;4394;51.208;8.904;2023-08-30T07:06:39;6.43;;;5.70;;
8714;SDS011;4394;51.208;8.904;2023-08-30T07:09:27;6.40;;;5.80;;
8714;SDS011;4394;51.208;8.904;2023-08-30T07:12:18;8.50;;;7.37;;
8714;SDS011;4394;51.208;8.904;2023-08-30T07:15:06;7.23;;;6.37;;
8714;SDS011;4394;51.208;8.904;2023-08-30T07:17:55;8.03;;;6.60;;
8714;SDS011;4394;51.208;8.904;2023-08-30T07:20:45;7.97;;;6.50;;
8714;SDS011;4394;51.208;8.904;2023-08-30T07:23:34;8.90;;;6.97;;
8714;SDS011;4394;51.208;8.904;2023-08-30T07:26:22;8.30;;;6.90;;
8714;SDS011;4394;51.208;8.904;2023-08-30T07:29:11;10.00;;;7.63;;
8714;SDS011;4394;51.208;8.904;2023-08-30T07:31:59;9.13;;;7.33;;
8714;SDS011;4394;51.208;8.904;2023-08-30T07:34:47;11.13;;;8.40;;
8714;SDS011;4394;51.208;8.904;2023-08-30T07:37:35;9.77;;;8.03;;
8714;SDS011;4394;51.208;8.904;2023-08-30T07:40:25;10.63;;;7.73;;
8714;SDS011;4394;51.208;8.904;2023-08-30T07:43:15;11.10;;;8.00;;
8714;SDS011;4394;51.208;8.904;2023-08-30T07:46:03;10.00;;;8.40;;
8714;SDS011;4394;51.208;8.904;2023-08-30T07:48:51;9.33;;;7.00;;
8714;SDS011;4394;51.208;8.904;2023-08-30T07:51:39;8.90;;;7.33;;
8714;SDS011;4394;51.208;8.904;2023-08-30T07:54:27;7.73;;;6.87;;
8714;SDS011;4394;51.208;8.904;2023-08-30T07:57:17;8.93;;;7.67;;
8714;SDS011;4394;51.208;8.904;2023-08-30T08:00:05;8.73;;;7.73;;
8714;SDS011;4394;51.208;8.904;2023-08-30T08:02:55;8.67;;;7.57;;
8714;SDS011;4394;51.208;8.904;2023-08-30T08:05:43;9.70;;;7.50;;
8714;SDS011;4394;51.208;8.904;2023-08-30T08:08:31;9.80;;;8.27;;
8714;SDS011;4394;51.208;8.904;2023-08-30T08:11:19;9.53;;;7.67;;
8714;SDS011;4394;51.208;8.904;2023-08-30T08:14:09;10.00;;;8.40;;
8714;SDS011;4394;51.208;8.904;2023-08-30T08:16:58;9.63;;;8.50;;
8714;SDS011;4394;51.208;8.904;2023-08-30T08:19:46;11.60;;;8.70;;
8714;SDS011;4394;51.208;8.904;2023-08-30T08:22:34;10.70;;;8.90;;
8714;SDS011;4394;51.208;8.904;2023-08-30T08:25:22;11.20;;;9.20;;
8714;SDS011;4394;51.208;8.904;2023-08-30T08:28:10;9.83;;;8.50;;
8714;SDS011;4394;51.208;8.904;2023-08-30T08:30:59;12.17;;;9.90;;
8714;SDS011;4394;51.208;8.904;2023-08-30T08:33:50;12.27;;;10.00;;
8714;SDS011;4394;51.208;8.904;2023-08-30T08:36:40;13.87;;;9.83;;
8714;SDS011;4394;51.208;8.904;2023-08-30T08:39:30;12.10;;;10.00;;
8714;SDS011;4394;51.208;8.904;2023-08-30T08:42:18;13.40;;;10.30;;
8714;SDS011;4394;51.208;8.904;2023-08-30T08:45:07;12.27;;;9.53;;
8714;SDS011;4394;51.208;8.904;2023-08-30T08:47:59;14.50;;;10.73;;
8714;SDS011;4394;51.208;8.904;2023-08-30T08:50:50;11.77;;;9.67;;
8714;SDS011;4394;51.208;8.904;2023-08-30T08:53:38;12.27;;;9.40;;
8714;SDS011;4394;51.208;8.904;2023-08-30T08:56:26;12.00;;;9.63;;
8714;SDS011;4394;51.208;8.904;2023-08-30T08:59:15;12.63;;;10.03;;
8714;SDS011;4394;51.208;8.904;2023-08-30T09:02:03;14.00;;;11.73;;
8714;SDS011;4394;51.208;8.904;2023-08-30T09:04:53;12.87;;;11.17;;
8714;SDS011;4394;51.208;8.904;2023-08-30T09:07:41;14.77;;;11.23;;
8714;SDS011;4394;51.208;8.904;2023-08-30T09:10:31;13.07;;;10.97;;
8714;SDS011;4394;51.208;8.904;2023-08-30T09:13:19;19.07;;;12.07;;
8714;SDS011;4394;51.208;8.904;2023-08-30T09:16:12;16.60;;;12.13;;
8714;SDS011;4394;51.208;8.904;2023-08-30T09:19:01;17.17;;;11.90;;
8714;SDS011;4394;51.208;8.904;2023-08-30T09:21:58;15.30;;;11.10;;
8714;SDS011;4394;51.208;8.904;2023-08-30T09:24:46;14.27;;;11.37;;
8714;SDS011;4394;51.208;8.904;2023-08-30T09:27:35;12.43;;;10.60;;
8714;SDS011;4394;51.208;8.904;2023-08-30T09:30:25;14.53;;;11.37;;
8714;SDS011;4394;51.208;8.904;2023-08-30T09:33:13;19.33;;;12.00;;
8714;SDS011;4394;51.208;8.904;2023-08-30T09:36:02;14.90;;;11.93;;
8714;SDS011;4394;51.208;8.904;2023-08-30T09:38:58;14.00;;;12.50;;
8714;SDS011;4394;51.208;8.904;2023-08-30T09:41:47;16.00;;;13.00;;
8714;SDS011;4394;51.208;8.904;2023-08-30T09:44:35;16.30;;;13.53;;
8714;SDS011;4394;51.208;8.904;2023-08-30T09:47:24;18.00;;;14.37;;
8714;SDS011;4394;51.208;8.904;2023-08-30T09:50:13;16.63;;;13.10;;
8714;SDS011;4394;51.208;8.904;2023-08-30T09:53:06;16.47;;;13.10;;
8714;SDS011;4394;51.208;8.904;2023-08-30T09:55:57;16.73;;;13.77;;
8714;SDS011;4394;51.208;8.904;2023-08-30T09:58:48;17.20;;;13.23;;
8714;SDS011;4394;51.208;8.904;2023-08-30T10:01:36;17.80;;;13.37;;
8714;SDS011;4394;51.208;8.904;2023-08-30T10:04:24;15.00;;;11.47;;
8714;SDS011;4394;51.208;8.904;2023-08-30T10:07:14;15.00;;;12.20;;
8714;SDS011;4394;51.208;8.904;2023-08-30T10:10:03;16.17;;;13.20;;
8714;SDS011;4394;51.208;8.904;2023-08-30T10:12:57;16.98;;;15.18;;
8714;SDS011;4394;51.208;8.904;2023-08-30T10:15:58;16.83;;;14.17;;
8714;SDS011;4394;51.208;8.904;2023-08-30T10:18:52;18.30;;;13.50;;
8714;SDS011;4394;51.208;8.904;2023-08-30T10:21:53;18.30;;;13.03;;
8714;SDS011;4394;51.208;8.904;2023-08-30T10:24:46;17.33;;;13.63;;
8714;SDS011;4394;51.208;8.904;2023-08-30T10:28:00;14.98;;;13.40;;
8714;SDS011;4394;51.208;8.904;2023-08-30T10:30:50;16.33;;;11.43;;
8714;SDS011;4394;51.208;8.904;2023-08-30T10:33:48;12.87;;;11.47;;
8714;SDS011;4394;51.208;8.904;2023-08-30T10:36:36;13.63;;;11.33;;
8714;SDS011;4394;51.208;8.904;2023-08-30T10:39:27;11.63;;;10.33;;
8714;SDS011;4394;51.208;8.904;2023-08-30T10:42:23;11.93;;;9.77;;
8714;SDS011;4394;51.208;8.904;2023-08-30T10:45:12;9.73;;;8.73;;
8714;SDS011;4394;51.208;8.904;2023-08-30T10:48:00;8.97;;;8.07;;
8714;SDS011;4394;51.208;8.904;2023-08-30T10:50:50;8.43;;;7.63;;
8714;SDS011;4394;51.208;8.904;2023-08-30T10:53:38;9.33;;;7.20;;
8714;SDS011;4394;51.208;8.904;2023-08-30T10:56:26;8.90;;;7.67;;
8714;SDS011;4394;51.208;8.904;2023-08-30T10:59:16;8.10;;;6.73;;
8714;SDS011;4394;51.208;8.904;2023-08-30T11:02:06;5.63;;;4.87;;
8714;SDS011;4394;51.208;8.904;2023-08-30T11:04:55;6.83;;;6.20;;
8714;SDS011;4394;51.208;8.904;2023-08-30T11:07:44;6.13;;;5.50;;
8714;SDS011;4394;51.208;8.904;2023-08-30T11:10:33;6.17;;;5.57;;
8714;SDS011;4394;51.208;8.904;2023-08-30T11:13:21;6.33;;;5.43;;
8714;SDS011;4394;51.208;8.904;2023-08-30T11:16:10;5.83;;;5.23;;
8714;SDS011;4394;51.208;8.904;2023-08-30T11:19:01;6.17;;;5.57;;
8714;SDS011;4394;51.208;8.904;2023-08-30T11:21:49;5.37;;;4.87;;
8714;SDS011;4394;51.208;8.904;2023-08-30T11:24:37;6.55;;;5.65;;
8714;SDS011;4394;51.208;8.904;2023-08-30T11:27:27;5.67;;;4.47;;
8714;SDS011;4394;51.208;8.904;2023-08-30T11:30:15;7.13;;;4.97;;
8714;SDS011;4394;51.208;8.904;2023-08-30T11:33:05;6.33;;;4.97;;
8714;SDS011;4394;51.208;8.904;2023-08-30T11:35:55;5.17;;;4.37;;
8714;SDS011;4394;51.208;8.904;2023-08-30T11:38:43;6.07;;;4.53;;
8714;SDS011;4394;51.208;8.904;2023-08-30T11:41:32;5.90;;;4.70;;
8714;SDS011;4394;51.208;8.904;2023-08-30T11:44:22;6.73;;;5.23;;
8714;SDS011;4394;51.208;8.904;2023-08-30T11:47:10;5.50;;;4.90;;
8714;SDS011;4394;51.208;8.904;2023-08-30T11:49:59;5.20;;;4.70;;
8714;SDS011;4394;51.208;8.904;2023-08-30T11:52:49;5.07;;;4.53;;
8714;SDS011;4394;51.208;8.904;2023-08-30T11:55:38;5.47;;;4.97;;
8714;SDS011;4394;51.208;8.904;2023-08-30T11:58:26;4.83;;;4.33;;
8714;SDS011;4394;51.208;8.904;2023-08-30T12:01:15;5.50;;;4.50;;
8714;SDS011;4394;51.208;8.904;2023-08-30T12:04:09;4.90;;;4.40;;
8714;SDS011;4394;51.208;8.904;2023-08-30T12:06:58;3.97;;;3.60;;
8714;SDS011;4394;51.208;8.904;2023-08-30T12:09:47;5.87;;;4.20;;
8714;SDS011;4394;51.208;8.904;2023-08-30T12:12:36;4.43;;;4.03;;
8714;SDS011;4394;51.208;8.904;2023-08-30T12:15:24;4.50;;;4.10;;
8714;SDS011;4394;51.208;8.904;2023-08-30T12:18:14;7.97;;;4.10;;
8714;SDS011;4394;51.208;8.904;2023-08-30T12:21:03;5.77;;;3.30;;
8714;SDS011;4394;51.208;8.904;2023-08-30T12:23:59;3.67;;;3.37;;
8714;SDS011;4394;51.208;8.904;2023-08-30T12:26:51;3.93;;;3.53;;
8714;SDS011;4394;51.208;8.904;2023-08-30T12:29:39;3.60;;;3.30;;
8714;SDS011;4394;51.208;8.904;2023-08-30T12:32:27;3.83;;;3.53;;
8714;SDS011;4394;51.208;8.904;2023-08-30T12:35:15;3.50;;;3.20;;
8714;SDS011;4394;51.208;8.904;2023-08-30T12:38:03;5.77;;;4.10;;
8714;SDS011;4394;51.208;8.904;2023-08-30T12:40:52;3.40;;;3.10;;
8714;SDS011;4394;51.208;8.904;2023-08-30T12:43:42;3.93;;;3.20;;
8714;SDS011;4394;51.208;8.904;2023-08-30T12:46:30;4.00;;;3.47;;
8714;SDS011;4394;51.208;8.904;2023-08-30T12:49:18;4.00;;;3.17;;
8714;SDS011;4394;51.208;8.904;2023-08-30T12:52:07;4.73;;;3.63;;
8714;SDS011;4394;51.208;8.904;2023-08-30T12:54:55;3.93;;;3.53;;
8714;SDS011;4394;51.208;8.904;2023-08-30T12:57:43;4.23;;;3.63;;
8714;SDS011;4394;51.208;8.904;2023-08-30T13:00:34;6.40;;;3.73;;
8714;SDS011;4394;51.208;8.904;2023-08-30T13:03:22;4.33;;;3.50;;
8714;SDS011;4394;51.208;8.904;2023-08-30T13:06:10;4.30;;;3.90;;
8714;SDS011;4394;51.208;8.904;2023-08-30T13:08:59;3.50;;;3.20;;
8714;SDS011;4394;51.208;8.904;2023-08-30T13:11:47;3.90;;;3.40;;
8714;SDS011;4394;51.208;8.904;2023-08-30T13:14:35;3.87;;;3.17;;
8714;SDS011;4394;51.208;8.904;2023-08-30T13:17:25;3.73;;;3.40;;
8714;SDS011;4394;51.208;8.904;2023-08-30T13:20:13;3.20;;;2.90;;
8714;SDS011;4394;51.208;8.904;2023-08-30T13:23:01;4.10;;;3.10;;
8714;SDS011;4394;51.208;8.904;2023-08-30T13:25:50;5.23;;;3.17;;
8714;SDS011;4394;51.208;8.904;2023-08-30T13:28:38;3.30;;;3.00;;
8714;SDS011;4394;51.208;8.904;2023-08-30T13:31:26;4.50;;;3.70;;
8714;SDS011;4394;51.208;8.904;2023-08-30T13:34:16;4.78;;;3.50;;
8714;SDS011;4394;51.208;8.904;2023-08-30T13:37:04;4.50;;;2.90;;
8714;SDS011;4394;51.208;8.904;2023-08-30T13:39:53;3.80;;;3.17;;
8714;SDS011;4394;51.208;8.904;2023-08-30T13:42:41;3.77;;;3.00;;
8714;SDS011;4394;51.208;8.904;2023-08-30T13:45:29;5.47;;;3.60;;
8714;SDS011;4394;51.208;8.904;2023-08-30T13:48:17;5.67;;;3.90;;
8714;SDS011;4394;51.208;8.904;2023-08-30T13:51:07;19.73;;;6.83;;
8714;SDS011;4394;51.208;8.904;2023-08-30T13:53:55;5.60;;;3.87;;
8714;SDS011;4394;51.208;8.904;2023-08-30T13:56:44;5.77;;;3.87;;
8714;SDS011;4394;51.208;8.904;2023-08-30T13:59:32;4.37;;;3.67;;
8714;SDS011;4394;51.208;8.904;2023-08-30T14:02:21;3.83;;;3.00;;
8714;SDS011;4394;51.208;8.904;2023-08-30T14:05:11;3.77;;;3.27;;
8714;SDS011;4394;51.208;8.904;2023-08-30T14:08:01;4.63;;;3.13;;
8714;SDS011;4394;51.208;8.904;2023-08-30T14:10:49;4.90;;;3.00;;
8714;SDS011;4394;51.208;8.904;2023-08-30T14:13:37;3.63;;;2.87;;
8714;SDS011;4394;51.208;8.904;2023-08-30T14:16:25;3.37;;;2.93;;
8714;SDS011;4394;51.208;8.904;2023-08-30T14:19:14;3.77;;;3.10;;
8714;SDS011;4394;51.208;8.904;2023-08-30T14:22:03;4.33;;;3.33;;
8714;SDS011;4394;51.208;8.904;2023-08-30T14:24:53;4.30;;;3.10;;
8714;SDS011;4394;51.208;8.904;2023-08-30T14:27:57;3.10;;;2.80;;
8714;SDS011;4394;51.208;8.904;2023-08-30T14:30:45;2.80;;;2.60;;
8714;SDS011;4394;51.208;8.904;2023-08-30T14:33:34;4.87;;;2.90;;
8714;SDS011;4394;51.208;8.904;2023-08-30T14:36:22;3.07;;;2.70;;
8714;SDS011;4394;51.208;8.904;2023-08-30T14:39:10;3.20;;;2.70;;
8714;SDS011;4394;51.208;8.904;2023-08-30T14:41:59;3.77;;;2.77;;
8714;SDS011;4394;51.208;8.904;2023-08-30T14:44:48;3.07;;;2.47;;
8714;SDS011;4394;51.208;8.904;2023-08-30T14:47:37;3.50;;;2.73;;
8714;SDS011;4394;51.208;8.904;2023-08-30T14:50:25;3.90;;;2.97;;
8714;SDS011;4394;51.208;8.904;2023-08-30T14:53:13;4.50;;;2.90;;
8714;SDS011;4394;51.208;8.904;2023-08-30T14:56:02;3.30;;;2.67;;
8714;SDS011;4394;51.208;8.904;2023-08-30T14:58:54;3.87;;;2.60;;
8714;SDS011;4394;51.208;8.904;2023-08-30T15:01:42;3.20;;;2.77;;
8714;SDS011;4394;51.208;8.904;2023-08-30T15:04:30;3.10;;;2.40;;
8714;SDS011;4394;51.208;8.904;2023-08-30T15:07:19;2.60;;;2.40;;
8714;SDS011;4394;51.208;8.904;2023-08-30T15:10:07;2.70;;;2.50;;
8714;SDS011;4394;51.208;8.904;2023-08-30T15:12:55;4.27;;;2.60;;
8714;SDS011;4394;51.208;8.904;2023-08-30T15:15:45;3.33;;;2.37;;
8714;SDS011;4394;51.208;8.904;2023-08-30T15:18:33;3.03;;;2.40;;
8714;SDS011;4394;51.208;8.904;2023-08-30T15:21:22;2.60;;;2.27;;
8714;SDS011;4394;51.208;8.904;2023-08-30T15:24:10;3.00;;;2.63;;
8714;SDS011;4394;51.208;8.904;2023-08-30T15:26:58;2.50;;;2.30;;
8714;SDS011;4394;51.208;8.904;2023-08-30T15:29:47;3.43;;;2.57;;
8714;SDS011;4394;51.208;8.904;2023-08-30T15:32:39;3.87;;;2.07;;
8714;SDS011;4394;51.208;8.904;2023-08-30T15:35:28;3.10;;;2.50;;
8714;SDS011;4394;51.208;8.904;2023-08-30T15:38:16;2.90;;;2.60;;
8714;SDS011;4394;51.208;8.904;2023-08-30T15:41:06;5.07;;;2.87;;
8714;SDS011;4394;51.208;8.904;2023-08-30T15:43:56;3.53;;;3.10;;
8714;SDS011;4394;51.208;8.904;2023-08-30T15:46:45;4.05;;;2.80;;
8714;SDS011;4394;51.208;8.904;2023-08-30T15:49:34;6.23;;;3.57;;
8714;SDS011;4394;51.208;8.904;2023-08-30T15:52:25;6.07;;;2.67;;
8714;SDS011;4394;51.208;8.904;2023-08-30T15:55:14;4.80;;;3.10;;
8714;SDS011;4394;51.208;8.904;2023-08-30T15:58:03;4.93;;;2.73;;
8714;SDS011;4394;51.208;8.904;2023-08-30T16:00:51;4.10;;;1.63;;
8714;SDS011;4394;51.208;8.904;2023-08-30T16:03:40;2.67;;;1.50;;
8714;SDS011;4394;51.208;8.904;2023-08-30T16:06:31;2.30;;;1.90;;
8714;SDS011;4394;51.208;8.904;2023-08-30T16:09:19;3.90;;;2.50;;
8714;SDS011;4394;51.208;8.904;2023-08-30T16:12:07;3.03;;;2.20;;
8714;SDS011;4394;51.208;8.904;2023-08-30T16:14:55;3.30;;;1.80;;
8714;SDS011;4394;51.208;8.904;2023-08-30T16:17:44;3.80;;;2.17;;
8714;SDS011;4394;51.208;8.904;2023-08-30T16:20:32;2.50;;;1.47;;
8714;SDS011;4394;51.208;8.904;2023-08-30T16:23:21;1.60;;;1.43;;
8714;SDS011;4394;51.208;8.904;2023-08-30T16:26:10;2.33;;;1.40;;
8714;SDS011;4394;51.208;8.904;2023-08-30T16:28:59;2.00;;;1.20;;
8714;SDS011;4394;51.208;8.904;2023-08-30T16:31:48;11.83;;;1.70;;
8714;SDS011;4394;51.208;8.904;2023-08-30T16:34:38;1.83;;;1.60;;
8714;SDS011;4394;51.208;8.904;2023-08-30T16:37:27;2.57;;;1.53;;
8714;SDS011;4394;51.208;8.904;2023-08-30T16:40:17;2.53;;;1.40;;
8714;SDS011;4394;51.208;8.904;2023-08-30T16:43:05;1.73;;;1.50;;
8714;SDS011;4394;51.208;8.904;2023-08-30T16:45:53;2.00;;;1.80;;
8714;SDS011;4394;51.208;8.904;2023-08-30T16:48:43;2.77;;;1.80;;
8714;SDS011;4394;51.208;8.904;2023-08-30T16:51:31;1.90;;;1.40;;
8714;SDS011;4394;51.208;8.904;2023-08-30T16:54:20;1.30;;;1.17;;
8714;SDS011;4394;51.208;8.904;2023-08-30T16:57:09;3.30;;;1.70;;
8714;SDS011;4394;51.208;8.904;2023-08-30T16:59:57;2.20;;;1.60;;
8714;SDS011;4394;51.208;8.904;2023-08-30T17:02:46;2.93;;;2.00;;
8714;SDS011;4394;51.208;8.904;2023-08-30T17:05:37;1.83;;;1.70;;
8714;SDS011;4394;51.208;8.904;2023-08-30T17:08:26;2.57;;;1.90;;
8714;SDS011;4394;51.208;8.904;2023-08-30T17:11:14;3.37;;;2.17;;
8714;SDS011;4394;51.208;8.904;2023-08-30T17:14:04;1.90;;;1.57;;
8714;SDS011;4394;51.208;8.904;2023-08-30T17:16:53;2.07;;;1.70;;
8714;SDS011;4394;51.208;8.904;2023-08-30T17:19:42;4.60;;;1.80;;
8714;SDS011;4394;51.208;8.904;2023-08-30T17:22:31;3.33;;;1.50;;
8714;SDS011;4394;51.208;8.904;2023-08-30T17:25:19;2.00;;;1.80;;
8714;SDS011;4394;51.208;8.904;2023-08-30T17:28:07;2.13;;;1.93;;
8714;SDS011;4394;51.208;8.904;2023-08-30T17:30:57;1.87;;;1.63;;